Search for airport 
image banner adimage banner adimage banner ad
image banner ad

KLHM - Lincoln Rgnl/Karl Harder Field

Located in Lincoln, United States

ICAO - LHM, IATA -

Data provided by Airmate  

General information

Coordinates: N38°54'33" W121°21'5"
Elevation is 121 feet MSL.
Magnetic variation is 14° East
View others Airports in California

Operational data

Special qualification required
Current time UTC:
Current local time:
Weather
METAR: KLHM 191255Z AUTO 00000KT 10SM CLR 05/04 A3000 RMK AO1
View NOTAMs / SUP AIP / TFR affecting this airport [VIEW]
Communications frequencies: [VIEW]

Runways:

RWY identifierQFULength (ft)Width (ft)SurfaceLDA (ft)
15165°6001100ASPH
33345°6001100ASPH

Airport contact information

Address: Lincoln United States

Other aviation service providers

Flight schools

Lincoln Skyways, Inc.

Lincoln Skyways, Inc.

Norcal Flight Center, Llc

Norcal Flight Center, Llc

Flightquest, Llc

Flightquest, Llc

Satellite view of KLHM